MST,Max TemperatureF,Mean TemperatureF,Min TemperatureF,Max Dew PointF,MeanDew PointF,Min DewpointF,Max Humidity, Mean Humidity, Min Humidity, Max Sea Level PressureIn, Mean Sea Level PressureIn, Min Sea Level PressureIn, Max VisibilityMiles, Mean VisibilityMiles, Min VisibilityMiles, Max Wind SpeedMPH, Mean Wind SpeedMPH, Max Gust SpeedMPH,PrecipitationIn, CloudCover, Events, WindDirDegrees
2012-10-1,105,86,67,82,71,59,89,54,23,29.80,29.73,29.66,12,10,10,20,7,,0.00,0,,104
2012-10-2,107,90,74,77,62,45,89,45,12,29.86,29.80,29.74,12,10,10,18,6,,0.00,0,,161
2012-10-3,102,86,70,72,60,50,78,42,15,29.94,29.88,29.82,12,10,10,16,6,,0.00,0,,205
2012-10-4,104,89,74,75,68,59,89,53,24,29.99,29.92,29.85,12,10,8,20,5,,0.00,0,,265
2012-10-5,105,86,68,76,57,39,88,40,7,29.94,29.87,29.80,12,10,8,18,4,,0.00,0,,236
2012-10-6,100,86,71,70,60,46,78,45,16,29.90,29.82,29.74,12,10,10,9,6,,0.00,0,,157
2012-10-7,96,80,64,59,55,52,68,40,22,29.97,29.80,29.75,12,10,10,14,5,,0.00,0,,176
2012-10-8,101,81,61,63,48,34,64,33,7,29.90,29.85,29.81,12,11,10,13,5,,0.00,0,,154
2012-10-9,99,82,66,69,63,55,83,54,16,29.93,29.87,29.82,12,10,10,18,5,,0.00,0,,135
2012-10-10,98,85,72,67,61,52,67,44,22,29.94,29.87,29.80,12,10,3,13,8,,0.00,3,,168
2012-10-11,96,82,68,68,63,57,83,50,30,29.90,29.85,29.81,12,10,8,18,6,,0.00,3,,161
2012-10-12,93,80,68,69,60,48,83,51,23,29.99,29.91,29.85,12,10,3,17,4,,0.00,1,,291
2012-10-13,93,78,64,54,43,30,52,32,11,29.97,29.90,29.84,19,10,3,12,9,,0.00,0,,300
2012-10-14,89,72,55,53,45,36,77,38,15,29.94,29.87,29.81,19,11,10,11,5,,0.00,5,,305
2012-10-15,87,72,57,63,56,48,64,45,26,29.90,29.85,29.82,12,10,9,20,6,,0.00,7,Rain,90
2012-10-16,80,75,70,73,68,66,94,80,61,29.81,29.75,29.68,12,8,2,17,7,,0.12,8,Rain,70
2012-10-17,86,80,73,76,69,63,89,72,55,29.90,29.81,29.50,12,10,8,18,9,,0.01,5,Rain,138
2012-10-18,92,76,61,68,62,52,99,59,27,29.97,29.89,29.81,12,10,3,22,6,,0.00,0,,312
2012-10-19,93,78,64,70,62,59,88,58,32,29.83,29.72,28.48,12,10,3,13,5,,0.00,1,,296
2012-10-20,93,82,71,70,65,54,94,62,26,29.84,29.78,29.73,10,9,6,10,5,,0.00,3,Fog,202
2012-10-21,95,80,66,64,57,48,83,47,21,29.89,29.81,29.75,19,11,10,11,5,,0.00,2,,223
2012-10-22,96,78,59,63,51,39,73,39,10,29.88,29.81,29.75,19,11,10,18,4,,0.00,0,,275
2012-10-23,94,76,58,64,57,48,82,50,21,29.86,29.78,29.71,12,10,8,12,4,,0.00,0,,283
2012-10-24,95,78,61,64,58,46,83,50,19,29.86,29.79,29.72,12,10,3,20,6,,0.00,0,,309
2012-10-25,96,78,60,61,52,41,94,44,12,29.84,29.77,29.71,12,10,3,20,4,,0.00,0,,276
2012-10-26,96,76,57,56,47,34,72,36,7,29.83,29.76,29.70,19,11,8,16,4,,0.00,0,,259
2012-10-27,95,77,59,54,48,41,69,38,13,29.83,29.77,29.72,12,10,3,14,3,,0.00,1,,268
2012-10-28,93,77,61,61,51,46,63,39,21,29.92,29.87,29.82,12,10,3,12,5,,0.00,0,,200
2012-10-29,96,78,59,55,48,43,63,34,16,30.01,29.92,29.85,12,10,10,20,4,,0.00,0,,288
2012-10-30,96,80,63,64,55,45,68,41,15,29.99,29.91,29.82,12,10,3,16,7,,0.00,0,,157
2012-10-31,93,76,60,65,52,45,77,42,19,29.94,29.88,29.82,12,10,3,13,4,,0.00,2,,214